Garcia Miguel — CUGT9 — position and weather

sailwx.info

Track history (hours):
 
Tides and Currents Weather Stations Pressure Air Temp Water Temp Dewpoint Dewpoint Depression Visibility Wind Speed Wind Dir Waves Ship Positions

Garcia Miguel

Last reported at 2016-Aug-25 17:03 UTC. Time now 2016-Aug-27 16:52 UTC.
Position N 39°21' W 009°22'.

Length 20 m.

Type: Fishing. MMSI: 263500286.

Date/timePositionNaut miles runAvg speedWind from/ knotsBaromVisibWave heightAir tempDewpointWater temp
2016-Aug-25 17:03N 39°21' W 009°22'0 0.0
2016-Aug-25 11:32N 39°21' W 009°22'2 0.8
2016-Aug-25 09:32N 39°20' W 009°23'7 7.3
2016-Aug-25 08:33N 39°13' W 009°25'7 7.4
2016-Aug-25 07:33N 39°06' W 009°28'7 7.5
2016-Aug-25 06:33N 38°58' W 009°30'15 7.4
2016-Aug-25 04:33N 38°45' W 009°39'7 7.0
2016-Aug-25 03:33N 38°40' W 009°44'6 6.5
2016-Aug-25 02:33N 38°34' W 009°49'7 6.7
2016-Aug-25 01:33N 38°28' W 009°53'7 6.6
2016-Aug-25 00:33N 38°23' W 009°58'6 6.5
2016-Aug-24 23:33N 38°18' W 010°04'6 6.4
2016-Aug-24 22:33N 38°13' W 010°08'7 6.7
2016-Aug-24 21:33N 38°07' W 010°13'7 6.8
2016-Aug-24 20:33N 38°02' W 010°18'6 6.5
2016-Aug-24 19:33N 37°57' W 010°23'6 6.4
2016-Aug-24 18:33N 37°51' W 010°28'6 6.0
2016-Aug-24 17:33N 37°46' W 010°32'6 6.1
2016-Aug-24 16:33N 37°41' W 010°36'6 6.3
2016-Aug-24 15:33N 37°36' W 010°41'6 6.1
2016-Aug-24 14:31N 37°31' W 010°45'62 5.2
2016-Aug-24 02:31N 36°37' W 011°25'3 3.0
2016-Aug-24 01:33N 36°36' W 011°28'5 4.6
2016-Aug-24 00:33N 36°35' W 011°34'1 0.8
2016-Aug-23 23:33N 36°34' W 011°34'3 0.9
2016-Aug-23 19:31N 36°31' W 011°34'2 2.3
2016-Aug-23 18:33N 36°33' W 011°34'2 1.9
2016-Aug-23 17:29N 36°35' W 011°35'1 0.8
2016-Aug-23 16:33N 36°34' W 011°36'1 0.7
2016-Aug-23 14:24N 36°33' W 011°36'1 0.6
2016-Aug-23 13:33N 36°32' W 011°37'1 1.0
2016-Aug-23 12:23N 36°31' W 011°37'1 1.0
2016-Aug-23 11:33N 36°31' W 011°36'1 0.9
2016-Aug-23 10:33N 36°31' W 011°35'1 0.8
2016-Aug-23 09:04N 36°32' W 011°35'0 0.7
2016-Aug-23 08:33N 36°32' W 011°34'1 0.7
2016-Aug-23 07:15N 36°31' W 011°34'1 0.8
2016-Aug-23 06:25N 36°31' W 011°34'0 0.4
2016-Aug-23 05:32N 36°30' W 011°34'2 2.0
2016-Aug-23 04:33N 36°32' W 011°35'3 2.5
2016-Aug-23 03:23N 36°35' W 011°35'5 6.6
2016-Aug-23 02:33N 36°37' W 011°29'4 3.6
2016-Aug-23 01:33N 36°36' W 011°24'1 0.6
2016-Aug-23 00:33N 36°37' W 011°24'15 0.6
2016-Aug-21 22:33N 36°43' W 011°07'  
Track history (hours):
 
Tides and Currents Weather Stations Pressure Air Temp Water Temp Dewpoint Dewpoint Depression Visibility Wind Speed Wind Dir Waves Ship Positions

Garcia Miguel

Last reported at 2016-Aug-25 17:03 UTC. Time now 2016-Aug-27 16:52 UTC.
Position N 39°21' W 009°22'.

Length 20 m.

Type: Fishing. MMSI: 263500286.

Date/timePositionNaut miles runAvg speedWind from/ knotsBaromVisibWave heightAir tempDewpointWater temp
2016-Aug-25 17:03N 39°21' W 009°22'0 0.0
2016-Aug-25 11:32N 39°21' W 009°22'2 0.8
2016-Aug-25 09:32N 39°20' W 009°23'7 7.3
2016-Aug-25 08:33N 39°13' W 009°25'7 7.4
2016-Aug-25 07:33N 39°06' W 009°28'7 7.5
2016-Aug-25 06:33N 38°58' W 009°30'15 7.4
2016-Aug-25 04:33N 38°45' W 009°39'7 7.0
2016-Aug-25 03:33N 38°40' W 009°44'6 6.5
2016-Aug-25 02:33N 38°34' W 009°49'7 6.7
2016-Aug-25 01:33N 38°28' W 009°53'7 6.6
2016-Aug-25 00:33N 38°23' W 009°58'6 6.5
2016-Aug-24 23:33N 38°18' W 010°04'6 6.4
2016-Aug-24 22:33N 38°13' W 010°08'7 6.7
2016-Aug-24 21:33N 38°07' W 010°13'7 6.8
2016-Aug-24 20:33N 38°02' W 010°18'6 6.5
2016-Aug-24 19:33N 37°57' W 010°23'6 6.4
2016-Aug-24 18:33N 37°51' W 010°28'6 6.0
2016-Aug-24 17:33N 37°46' W 010°32'6 6.1
2016-Aug-24 16:33N 37°41' W 010°36'6 6.3
2016-Aug-24 15:33N 37°36' W 010°41'6 6.1
2016-Aug-24 14:31N 37°31' W 010°45'62 5.2
2016-Aug-24 02:31N 36°37' W 011°25'3 3.0
2016-Aug-24 01:33N 36°36' W 011°28'5 4.6
2016-Aug-24 00:33N 36°35' W 011°34'1 0.8
2016-Aug-23 23:33N 36°34' W 011°34'3 0.9
2016-Aug-23 19:31N 36°31' W 011°34'2 2.3
2016-Aug-23 18:33N 36°33' W 011°34'2 1.9
2016-Aug-23 17:29N 36°35' W 011°35'1 0.8
2016-Aug-23 16:33N 36°34' W 011°36'1 0.7
2016-Aug-23 14:24N 36°33' W 011°36'1 0.6
2016-Aug-23 13:33N 36°32' W 011°37'1 1.0
2016-Aug-23 12:23N 36°31' W 011°37'1 1.0
2016-Aug-23 11:33N 36°31' W 011°36'1 0.9
2016-Aug-23 10:33N 36°31' W 011°35'1 0.8
2016-Aug-23 09:04N 36°32' W 011°35'0 0.7
2016-Aug-23 08:33N 36°32' W 011°34'1 0.7
2016-Aug-23 07:15N 36°31' W 011°34'1 0.8
2016-Aug-23 06:25N 36°31' W 011°34'0 0.4
2016-Aug-23 05:32N 36°30' W 011°34'2 2.0
2016-Aug-23 04:33N 36°32' W 011°35'3 2.5
2016-Aug-23 03:23N 36°35' W 011°35'5 6.6
2016-Aug-23 02:33N 36°37' W 011°29'4 3.6
2016-Aug-23 01:33N 36°36' W 011°24'1 0.6
2016-Aug-23 00:33N 36°37' W 011°24'15 0.6
2016-Aug-21 22:33N 36°43' W 011°07'  

Dump ship's entire track history